createdAt,value
2023-01-19T00:01:43.144Z,99836.13
2023-01-19T00:04:11.787Z,99839.38
2023-01-19T00:06:41.830Z,99835.38
2023-01-19T00:09:10.196Z,99847.13
2023-01-19T00:11:38.675Z,99847.94
2023-01-19T00:14:07.375Z,99859.22
2023-01-19T00:16:35.816Z,99856.03
2023-01-19T00:19:04.505Z,99858.28
2023-01-19T00:21:32.806Z,99857.44
2023-01-19T00:24:02.745Z,99867.28
2023-01-19T00:26:31.090Z,99867.06
2023-01-19T00:28:59.565Z,99868.03
2023-01-19T00:31:30.015Z,99873.78
2023-01-19T00:33:58.523Z,99873.56
2023-01-19T00:36:26.933Z,99878.50
2023-01-19T00:38:55.264Z,99877.88
2023-01-19T00:41:52.536Z,99878.69
2023-01-19T00:44:19.910Z,99881.66
2023-01-19T00:46:48.230Z,99878.72
2023-01-19T00:49:16.580Z,99889.69
2023-01-19T00:51:45.028Z,99894.03
2023-01-19T00:54:13.355Z,99890.22
2023-01-19T00:56:43.087Z,99894.53
2023-01-19T00:59:11.732Z,99891.28
2023-01-19T01:01:45.556Z,99891.00
2023-01-19T01:04:15.168Z,99887.66
2023-01-19T01:06:43.507Z,99894.06
2023-01-19T01:09:12.776Z,99894.66
2023-01-19T01:11:41.619Z,99897.13
2023-01-19T01:14:12.167Z,99894.56
2023-01-19T01:16:41.444Z,99895.25
2023-01-19T01:19:10.224Z,99904.56
2023-01-19T01:21:40.060Z,99895.97
2023-01-19T01:24:09.788Z,99897.59
2023-01-19T01:26:38.295Z,99895.75
2023-01-19T01:29:08.159Z,99896.53
2023-01-19T01:31:38.087Z,99893.09
2023-01-19T01:34:06.622Z,99893.09
2023-01-19T01:36:35.511Z,99889.69
2023-01-19T01:39:04.446Z,99898.19
2023-01-19T01:41:33.665Z,99901.53
2023-01-19T01:44:06.198Z,99909.78
2023-01-19T01:46:34.640Z,99911.53
2023-01-19T01:49:07.092Z,99916.03
2023-01-19T01:51:40.083Z,99914.50
2023-01-19T01:54:16.090Z,99911.75
2023-01-19T01:56:46.787Z,99916.84
2023-01-19T01:59:25.635Z,99918.31
2023-01-19T02:02:12.939Z,99920.38
2023-01-19T02:04:48.654Z,99908.22
2023-01-19T02:07:40.792Z,99905.66
2023-01-19T02:10:27.709Z,99914.78
2023-01-19T02:13:14.170Z,99902.84
2023-01-19T02:15:42.502Z,99903.53
2023-01-19T02:18:10.884Z,99911.97
2023-01-19T02:20:43.575Z,99901.47
2023-01-19T02:23:18.376Z,99900.50
2023-01-19T02:25:49.876Z,99904.69
2023-01-19T02:28:18.591Z,99913.13
2023-01-19T02:30:46.986Z,99912.16
2023-01-19T02:33:15.413Z,99909.59
2023-01-19T02:35:45.788Z,99909.88
2023-01-19T02:38:16.744Z,99915.09
2023-01-19T02:40:46.751Z,99916.38
2023-01-19T02:43:18.972Z,99912.81
2023-01-19T02:45:48.342Z,99907.84
2023-01-19T02:48:17.997Z,99906.25
2023-01-19T02:50:49.824Z,99908.81
2023-01-19T02:53:41.880Z,99907.03
2023-01-19T02:56:45.555Z,99904.50
2023-01-19T02:59:31.817Z,99891.47
2023-01-19T03:02:12.374Z,99892.16
2023-01-19T03:04:57.468Z,99897.03
2023-01-19T03:07:34.551Z,99901.19
2023-01-19T03:10:08.462Z,99900.97
2023-01-19T03:12:42.771Z,99900.97
2023-01-19T03:15:19.858Z,99895.00
2023-01-19T03:17:50.835Z,99892.13
2023-01-19T03:20:24.680Z,99903.13
2023-01-19T03:22:59.029Z,99900.56
2023-01-19T03:25:31.449Z,99899.50
2023-01-19T03:27:59.865Z,99902.16
2023-01-19T03:30:33.231Z,99906.06
2023-01-19T03:33:07.239Z,99910.19
2023-01-19T03:35:41.060Z,99915.28
2023-01-19T03:38:15.779Z,99916.44
2023-01-19T03:40:47.398Z,99907.63
2023-01-19T03:43:18.444Z,99916.63
2023-01-19T03:45:49.398Z,99922.28
2023-01-19T03:48:18.246Z,99929.53
2023-01-19T03:50:46.543Z,99930.31
2023-01-19T03:53:17.015Z,99926.78
2023-01-19T03:55:48.501Z,99930.88
2023-01-19T03:58:17.375Z,99929.00
2023-01-19T04:00:45.722Z,99931.25
2023-01-19T04:03:18.360Z,99925.97
2023-01-19T04:05:47.122Z,99933.28
2023-01-19T04:08:15.435Z,99937.31
2023-01-19T04:10:43.787Z,99935.44
2023-01-19T04:13:12.090Z,99927.56
2023-01-19T04:15:40.448Z,99931.81
2023-01-19T04:18:09.856Z,99929.25
2023-01-19T04:20:39.655Z,99933.34
2023-01-19T04:23:08.018Z,99936.78
2023-01-19T04:25:37.996Z,99938.25
2023-01-19T04:28:07.279Z,99929.72
2023-01-19T04:30:35.582Z,99932.25
2023-01-19T04:33:04.182Z,99930.59
2023-01-19T04:35:34.251Z,99927.84
2023-01-19T04:38:04.061Z,99938.03
2023-01-19T04:40:32.393Z,99945.53
2023-01-19T04:43:01.039Z,99942.88
2023-01-19T04:45:29.876Z,99943.47
2023-01-19T04:47:58.232Z,99937.38
2023-01-19T04:50:26.878Z,99939.06
2023-01-19T04:52:55.224Z,99936.31
2023-01-19T04:55:25.632Z,99935.22
2023-01-19T04:57:54.241Z,99929.91
2023-01-19T05:00:23.521Z,99934.78
2023-01-19T05:02:52.184Z,99940.66
2023-01-19T05:05:20.560Z,99938.88
2023-01-19T05:07:48.990Z,99941.41
2023-01-19T05:10:17.912Z,99943.22
2023-01-19T05:12:47.701Z,99946.50
2023-01-19T05:15:16.277Z,99949.16
2023-01-19T05:17:44.609Z,99946.31
2023-01-19T05:20:16.267Z,99945.53
2023-01-19T05:22:49.284Z,99951.28
2023-01-19T05:25:18.017Z,99943.53
2023-01-19T05:27:47.743Z,99959.59
2023-01-19T05:30:16.488Z,99952.97
2023-01-19T05:32:45.246Z,99948.75
2023-01-19T05:35:16.562Z,99955.41
2023-01-19T05:37:45.414Z,99947.75
2023-01-19T05:40:14.091Z,99946.88
2023-01-19T05:42:42.386Z,99960.47
2023-01-19T05:45:12.939Z,99956.84
2023-01-19T05:47:41.257Z,99971.09
2023-01-19T05:50:10.456Z,99967.78
2023-01-19T05:52:38.856Z,99967.69
2023-01-19T05:55:08.361Z,99975.22
2023-01-19T05:57:36.759Z,99973.53
2023-01-19T06:00:06.191Z,99977.63
2023-01-19T06:02:36.031Z,99989.25
2023-01-19T06:05:04.960Z,100001.44
2023-01-19T06:07:33.470Z,100002.09
2023-01-19T06:10:01.879Z,100000.28
2023-01-19T06:12:30.206Z,100003.63
2023-01-19T06:14:58.523Z,100007.72
2023-01-19T06:17:26.840Z,99999.09
2023-01-19T06:19:56.532Z,99997.44
2023-01-19T06:22:25.238Z,99999.00
2023-01-19T06:24:53.552Z,99994.66
2023-01-19T06:27:21.898Z,99995.44
2023-01-19T06:29:50.253Z,99996.03
2023-01-19T06:32:18.619Z,100000.34
2023-01-19T06:34:47.084Z,99994.34
2023-01-19T06:37:17.335Z,99999.44
2023-01-19T06:39:45.641Z,99998.56
2023-01-19T06:42:14.317Z,100003.66
2023-01-19T06:44:47.351Z,99998.78
2023-01-19T06:47:16.650Z,99993.91
2023-01-19T06:49:45.413Z,99995.69
2023-01-19T06:52:16.016Z,99999.97
2023-01-19T06:54:46.317Z,100000.75
2023-01-19T06:57:15.175Z,99998.22
2023-01-19T06:59:43.500Z,100003.41
2023-01-19T07:02:27.272Z,100000.09
2023-01-19T07:04:56.566Z,99991.56
2023-01-19T07:07:24.960Z,99997.44
2023-01-19T07:09:55.086Z,100001.88
2023-01-19T07:12:24.202Z,100007.59
2023-01-19T07:14:52.858Z,100011.72
2023-01-19T07:17:21.229Z,100018.00
2023-01-19T07:19:49.607Z,100023.09
2023-01-19T07:22:18.191Z,100025.66
2023-01-19T07:24:46.574Z,100028.19
2023-01-19T07:27:16.428Z,100027.06
2023-01-19T07:29:44.875Z,100030.38
2023-01-19T07:32:14.627Z,100024.44
2023-01-19T07:34:42.930Z,100035.34
2023-01-19T07:37:11.305Z,100035.25
2023-01-19T07:39:39.698Z,100038.59
2023-01-19T07:42:08.349Z,100029.94
2023-01-19T07:44:38.148Z,100042.78
2023-01-19T07:47:07.517Z,100040.22
2023-01-19T07:49:36.404Z,100041.22
2023-01-19T07:52:05.265Z,100047.31
2023-01-19T07:54:33.837Z,100040.13
2023-01-19T07:57:02.264Z,100043.88
2023-01-19T07:59:32.249Z,100050.63
2023-01-19T08:02:02.151Z,100049.41
2023-01-19T08:04:30.638Z,100054.72
2023-01-19T08:06:59.045Z,100056.38
2023-01-19T08:09:27.352Z,100053.03
2023-01-19T08:11:55.651Z,100057.03
2023-01-19T08:14:23.990Z,100061.34
2023-01-19T08:16:52.317Z,100060.78
2023-01-19T08:19:22.277Z,100067.63
2023-01-19T08:21:50.599Z,100065.41
2023-01-19T08:24:21.395Z,100070.41
2023-01-19T08:26:50.739Z,100067.19
2023-01-19T08:29:19.084Z,100068.28
2023-01-19T08:31:47.719Z,100070.16
2023-01-19T08:34:16.331Z,100080.56
2023-01-19T08:36:46.064Z,100077.25
2023-01-19T08:39:14.453Z,100075.81
2023-01-19T08:41:42.888Z,100079.44
2023-01-19T08:44:11.443Z,100083.97
2023-01-19T08:46:39.767Z,100072.78
2023-01-19T08:49:08.688Z,100076.53
2023-01-19T08:51:38.098Z,100086.81
2023-01-19T08:54:07.889Z,100078.50
2023-01-19T08:56:36.764Z,100081.25
2023-01-19T08:59:09.959Z,100085.78
2023-01-19T09:01:39.825Z,100086.75
2023-01-19T09:04:08.308Z,100086.63
2023-01-19T09:06:36.678Z,100085.88
2023-01-19T09:09:05.230Z,100081.75
2023-01-19T09:11:35.179Z,100085.91
2023-01-19T09:14:05.615Z,100091.44
2023-01-19T09:16:34.360Z,100090.75
2023-01-19T09:19:02.711Z,100096.59
2023-01-19T09:21:31.032Z,100098.47
2023-01-19T09:23:59.461Z,100090.03
2023-01-19T09:26:27.919Z,100098.66
2023-01-19T09:28:58.045Z,100101.31
2023-01-19T09:31:26.537Z,100103.06
2023-01-19T09:33:54.977Z,100097.63
2023-01-19T09:36:23.327Z,100098.59
2023-01-19T09:38:51.698Z,100103.19
2023-01-19T09:41:22.531Z,100102.75
2023-01-19T09:43:55.789Z,100092.19
2023-01-19T09:46:31.202Z,100094.34
2023-01-19T09:49:04.823Z,100089.38
2023-01-19T09:51:37.250Z,100087.03
2023-01-19T09:54:12.010Z,100086.53
2023-01-19T09:56:40.666Z,100089.69
2023-01-19T09:59:21.890Z,100091.03
2023-01-19T10:02:11.947Z,100087.13
2023-01-19T10:04:42.913Z,100083.19
2023-01-19T10:07:24.487Z,100086.91
2023-01-19T10:10:20.739Z,100082.63
2023-01-19T10:13:12.614Z,100074.91
2023-01-19T10:15:53.490Z,100079.72
2023-01-19T10:18:30.991Z,100072.72
2023-01-19T10:21:05.459Z,100071.50
2023-01-19T10:23:39.387Z,100076.16
2023-01-19T10:26:12.297Z,100076.41
2023-01-19T10:28:41.775Z,100071.84
2023-01-19T10:31:10.454Z,100067.38
2023-01-19T10:33:40.676Z,100070.63
2023-01-19T10:36:19.052Z,100062.03
2023-01-19T10:38:48.728Z,100067.53
2023-01-19T10:41:23.991Z,100074.13
2023-01-19T10:44:00.573Z,100061.53
2023-01-19T10:46:36.248Z,100062.22
2023-01-19T10:49:07.064Z,100063.66
2023-01-19T10:51:46.259Z,100058.25
2023-01-19T10:54:14.834Z,100058.69
2023-01-19T10:56:43.379Z,100057.97
2023-01-19T10:59:32.898Z,100055.91
2023-01-19T11:02:15.905Z,100056.09
2023-01-19T11:04:48.993Z,100047.59
2023-01-19T11:07:21.611Z,100051.03
2023-01-19T11:09:51.271Z,100040.09
2023-01-19T11:12:21.960Z,100043.44
2023-01-19T11:14:53.484Z,100046.94
2023-01-19T11:17:24.719Z,100053.69
2023-01-19T11:20:00.538Z,100039.38
2023-01-19T11:22:31.500Z,100041.69
2023-01-19T11:25:02.012Z,100039.63
2023-01-19T11:27:31.994Z,100027.19
2023-01-19T11:30:09.718Z,100033.94
2023-01-19T11:32:38.431Z,100027.13
2023-01-19T11:35:38.233Z,100021.94
2023-01-19T11:38:19.120Z,100015.00
2023-01-19T11:40:54.806Z,100020.81
2023-01-19T11:43:25.366Z,100023.56
2023-01-19T11:45:53.988Z,100019.75
2023-01-19T11:48:29.875Z,100018.84
2023-01-19T11:51:03.530Z,100016.66
2023-01-19T11:53:34.944Z,100020.34
2023-01-19T11:56:07.634Z,100014.91
2023-01-19T11:58:40.054Z,100012.34
2023-01-19T12:01:17.180Z,100021.31
2023-01-19T12:03:54.702Z,100016.66
2023-01-19T12:06:30.636Z,100011.69
2023-01-19T12:09:02.794Z,100015.94
2023-01-19T12:11:37.192Z,100017.72
2023-01-19T12:14:05.667Z,100018.03
2023-01-19T12:16:36.155Z,100020.59
2023-01-19T12:19:11.791Z,100019.03
2023-01-19T12:21:42.276Z,100015.88
2023-01-19T12:24:17.785Z,100013.47
2023-01-19T12:26:52.455Z,100012.25
2023-01-19T12:29:22.731Z,100014.03
2023-01-19T12:32:18.899Z,100017.41
2023-01-19T12:34:48.379Z,100031.00
2023-01-19T12:37:38.325Z,100025.09
2023-01-19T12:40:25.089Z,100023.97
2023-01-19T12:43:00.126Z,100029.09
2023-01-19T12:45:33.204Z,100024.84
2023-01-19T12:48:03.007Z,100022.13
2023-01-19T12:50:38.361Z,100027.44
2023-01-19T12:53:20.452Z,100040.53
2023-01-19T12:56:01.217Z,100037.78
2023-01-19T12:58:30.290Z,100031.41
2023-01-19T13:01:15.880Z,100034.56
2023-01-19T13:03:47.616Z,100036.63
2023-01-19T13:06:15.977Z,100040.50
2023-01-19T13:09:00.027Z,100042.06
2023-01-19T13:11:33.311Z,100033.16
2023-01-19T13:14:27.666Z,100032.78
2023-01-19T13:17:05.607Z,100042.16
2023-01-19T13:19:44.028Z,100041.53
2023-01-19T13:23:03.630Z,100052.78
2023-01-19T13:25:36.526Z,100052.69
2023-01-19T13:28:11.963Z,100042.50
2023-01-19T13:30:54.070Z,100049.50
2023-01-19T13:33:25.233Z,100058.19
2023-01-19T13:35:56.823Z,100054.34
2023-01-19T13:38:27.159Z,100064.91
2023-01-19T13:41:01.787Z,100061.34
2023-01-19T13:43:33.572Z,100058.75
2023-01-19T13:46:03.561Z,100051.72
2023-01-19T13:48:33.440Z,100070.22
2023-01-19T13:51:05.096Z,100066.47
2023-01-19T13:53:34.170Z,100067.44
2023-01-19T13:56:21.821Z,100068.00
2023-01-19T13:59:12.953Z,100069.81
2023-01-19T14:01:43.387Z,100074.31
2023-01-19T14:04:29.102Z,100079.59
2023-01-19T14:07:00.859Z,100076.09
2023-01-19T14:09:29.453Z,100080.00
2023-01-19T14:12:13.190Z,100076.22
2023-01-19T14:14:42.211Z,100074.41
2023-01-19T14:17:23.547Z,100087.56
2023-01-19T14:20:08.567Z,100092.38
2023-01-19T14:22:41.610Z,100090.13
2023-01-19T14:25:27.190Z,100096.47
2023-01-19T14:28:31.294Z,100101.63
2023-01-19T14:31:01.331Z,100100.09
2023-01-19T14:33:41.074Z,100105.06
2023-01-19T14:36:11.926Z,100108.59
2023-01-19T14:38:44.624Z,100106.31
2023-01-19T14:41:14.337Z,100107.75
2023-01-19T14:43:46.409Z,100113.53
2023-01-19T14:46:19.183Z,100117.56
2023-01-19T14:48:48.583Z,100108.84
2023-01-19T14:51:19.916Z,100113.53
2023-01-19T14:53:51.998Z,100117.00
2023-01-19T14:56:28.243Z,100125.63
2023-01-19T14:58:59.276Z,100118.59
2023-01-19T15:01:34.491Z,100121.06
2023-01-19T15:04:03.636Z,100116.22
2023-01-19T15:06:33.445Z,100120.00
2023-01-19T15:09:01.804Z,100111.97
2023-01-19T15:11:33.620Z,100123.03
2023-01-19T15:14:04.004Z,100117.81
2023-01-19T15:16:34.876Z,100120.97
2023-01-19T15:19:03.973Z,100122.69
2023-01-19T15:21:32.367Z,100123.38
2023-01-19T15:24:00.990Z,100125.84
2023-01-19T15:26:29.551Z,100123.91
2023-01-19T15:28:58.068Z,100120.47
2023-01-19T15:31:28.382Z,100124.44
2023-01-19T15:33:57.320Z,100126.44
2023-01-19T15:36:25.887Z,100126.34
2023-01-19T15:38:54.279Z,100128.41
2023-01-19T15:41:25.768Z,100129.19
2023-01-19T15:43:54.972Z,100122.13
2023-01-19T15:46:25.215Z,100135.72
2023-01-19T15:48:55.137Z,100135.47
2023-01-19T15:51:26.101Z,100130.25
2023-01-19T15:53:55.706Z,100135.38
2023-01-19T15:56:26.366Z,100132.91
2023-01-19T15:58:55.855Z,100131.41
2023-01-19T16:01:31.180Z,100129.72
2023-01-19T16:04:03.157Z,100143.31
2023-01-19T16:06:32.421Z,100134.31
2023-01-19T16:09:01.521Z,100135.88
2023-01-19T16:11:31.976Z,100129.81
2023-01-19T16:14:00.765Z,100130.78
2023-01-19T16:16:29.547Z,100125.66
2023-01-19T16:18:58.439Z,100131.56
2023-01-19T16:21:28.307Z,100129.00
2023-01-19T16:23:56.805Z,100135.72
2023-01-19T16:26:28.800Z,100133.06
2023-01-19T16:28:58.557Z,100133.34
2023-01-19T16:31:27.409Z,100136.69
2023-01-19T16:33:55.943Z,100140.41
2023-01-19T16:36:27.232Z,100133.06
2023-01-19T16:38:59.540Z,100140.50
2023-01-19T16:41:27.941Z,100140.50
2023-01-19T16:43:58.258Z,100147.19
2023-01-19T16:46:28.260Z,100149.13
2023-01-19T16:49:01.299Z,100150.53
2023-01-19T16:51:29.825Z,100146.22
2023-01-19T16:54:00.146Z,100153.28
2023-01-19T16:56:28.740Z,100154.78
2023-01-19T16:58:58.163Z,100151.94
2023-01-19T17:01:28.292Z,100154.09
2023-01-19T17:03:57.993Z,100156.56
2023-01-19T17:06:26.851Z,100152.94
2023-01-19T17:08:55.336Z,100155.66
2023-01-19T17:11:27.223Z,100157.16
2023-01-19T17:13:57.491Z,100162.38
2023-01-19T17:16:26.969Z,100151.13
2023-01-19T17:18:57.406Z,100159.00
2023-01-19T17:21:26.164Z,100153.69
2023-01-19T17:23:55.660Z,100159.09
2023-01-19T17:26:28.258Z,100153.09
2023-01-19T17:28:59.597Z,100165.09
2023-01-19T17:31:28.066Z,100167.66
2023-01-19T17:33:56.783Z,100161.66
2023-01-19T17:36:27.628Z,100166.78
2023-01-19T17:38:57.787Z,100168.75
2023-01-19T17:41:29.902Z,100172.84
2023-01-19T17:43:59.101Z,100176.47
2023-01-19T17:46:29.568Z,100168.75
2023-01-19T17:48:59.715Z,100173.22
2023-01-19T17:51:29.648Z,100176.47
2023-01-19T17:53:58.355Z,100181.59
2023-01-19T17:56:30.469Z,100186.72
2023-01-19T17:58:59.791Z,100183.03
2023-01-19T18:01:30.142Z,100181.34
2023-01-19T18:03:59.858Z,100185.41
2023-01-19T18:06:28.212Z,100185.06
2023-01-19T18:08:58.095Z,100189.22
2023-01-19T18:11:28.663Z,100194.50
2023-01-19T18:13:57.098Z,100199.81
2023-01-19T18:16:27.638Z,100203.88
2023-01-19T18:18:57.164Z,100196.28
2023-01-19T18:21:28.087Z,100192.94
2023-01-19T18:24:02.084Z,100198.84
2023-01-19T18:26:33.034Z,100196.28
2023-01-19T18:29:01.694Z,100204.91
2023-01-19T18:31:30.538Z,100203.16
2023-01-19T18:33:59.054Z,100203.16
2023-01-19T18:36:27.880Z,100207.28
2023-01-19T18:38:56.277Z,100211.81
2023-01-19T18:41:24.605Z,100209.09
2023-01-19T18:43:58.789Z,100206.69
2023-01-19T18:46:27.490Z,100204.22
2023-01-19T18:48:55.880Z,100211.00
2023-01-19T18:51:24.320Z,100212.59
2023-01-19T18:53:52.688Z,100218.53
2023-01-19T18:56:21.121Z,100224.00
2023-01-19T18:58:49.524Z,100224.34
2023-01-19T19:01:21.912Z,100228.31
2023-01-19T19:03:50.933Z,100229.91
2023-01-19T19:06:20.829Z,100233.34
2023-01-19T19:08:50.229Z,100235.91
2023-01-19T19:11:18.945Z,100236.88
2023-01-19T19:13:47.418Z,100240.16
2023-01-19T19:16:16.256Z,100242.72
2023-01-19T19:18:49.727Z,100242.88
2023-01-19T19:21:19.991Z,100251.25
2023-01-19T19:23:51.243Z,100251.34
2023-01-19T19:26:20.396Z,100256.56
2023-01-19T19:28:48.906Z,100253.13
2023-01-19T19:31:20.621Z,100259.03
2023-01-19T19:33:51.099Z,100259.13
2023-01-19T19:36:20.493Z,100260.97
2023-01-19T19:38:49.118Z,100270.44
2023-01-19T19:41:20.288Z,100272.03
2023-01-19T19:43:48.860Z,100278.09
2023-01-19T19:46:20.294Z,100279.97
2023-01-19T19:48:50.850Z,100279.06
2023-01-19T19:51:22.631Z,100279.25
2023-01-19T19:53:52.492Z,100281.81
2023-01-19T19:56:23.425Z,100275.03
2023-01-19T19:58:53.176Z,100286.34
2023-01-19T20:01:26.919Z,100289.69
2023-01-19T20:03:59.813Z,100285.81
2023-01-19T20:06:29.840Z,100293.56
2023-01-19T20:08:58.237Z,100287.75
2023-01-19T20:11:28.722Z,100300.47
2023-01-19T20:13:57.160Z,100296.94
2023-01-19T20:16:26.259Z,100295.19
2023-01-19T20:18:55.212Z,100299.59
2023-01-19T20:21:26.684Z,100303.13
2023-01-19T20:23:56.773Z,100299.75
2023-01-19T20:26:28.048Z,100304.78
2023-01-19T20:28:59.665Z,100308.16
2023-01-19T20:31:31.119Z,100309.91
2023-01-19T20:34:02.596Z,100308.16
2023-01-19T20:36:33.066Z,100318.69
2023-01-19T20:39:08.315Z,100310.91
2023-01-19T20:41:43.294Z,100312.66
2023-01-19T20:44:12.677Z,100327.13
2023-01-19T20:46:41.810Z,100322.19
2023-01-19T20:49:10.569Z,100318.84
2023-01-19T20:51:43.462Z,100326.81
2023-01-19T20:54:12.441Z,100330.16
2023-01-19T20:56:41.614Z,100332.09
2023-01-19T20:59:10.445Z,100332.81
2023-01-19T21:01:40.280Z,100338.81
2023-01-19T21:04:09.655Z,100335.81
2023-01-19T21:06:39.962Z,100340.78
2023-01-19T21:09:08.971Z,100343.25
2023-01-19T21:11:38.454Z,100348.63
2023-01-19T21:14:07.430Z,100351.19
2023-01-19T21:16:37.108Z,100356.50
2023-01-19T21:19:05.733Z,100355.44
2023-01-19T21:21:34.074Z,100365.00
2023-01-19T21:24:04.869Z,100365.16
2023-01-19T21:26:34.128Z,100367.25
2023-01-19T21:29:03.511Z,100377.34
2023-01-19T21:31:32.463Z,100374.59
2023-01-19T21:34:01.031Z,100379.66
2023-01-19T21:36:29.484Z,100381.22
2023-01-19T21:39:01.006Z,100375.94
2023-01-19T21:41:31.003Z,100384.69
2023-01-19T21:44:00.998Z,100386.53
2023-01-19T21:46:30.558Z,100387.16
2023-01-19T21:48:59.541Z,100394.69
2023-01-19T21:51:28.386Z,100397.84
2023-01-19T21:53:59.565Z,100397.84
2023-01-19T21:56:28.799Z,100401.13
2023-01-19T21:59:02.081Z,100404.69
2023-01-19T22:01:30.803Z,100415.25
2023-01-19T22:03:59.752Z,100416.25
2023-01-19T22:06:28.740Z,100412.38
2023-01-19T22:08:58.424Z,100418.91
2023-01-19T22:11:26.794Z,100422.63
2023-01-19T22:13:55.664Z,100425.34
2023-01-19T22:16:25.394Z,100427.19
2023-01-19T22:18:56.348Z,100432.22
2023-01-19T22:21:27.083Z,100421.28
2023-01-19T22:23:56.576Z,100438.00
2023-01-19T22:26:24.909Z,100435.34
2023-01-19T22:28:54.805Z,100445.28
2023-01-19T22:31:26.077Z,100445.13
2023-01-19T22:33:55.193Z,100452.00
2023-01-19T22:36:24.875Z,100455.75
2023-01-19T22:38:54.771Z,100450.50
2023-01-19T22:41:24.927Z,100452.22
2023-01-19T22:43:55.261Z,100452.28
2023-01-19T22:46:27.527Z,100454.34
2023-01-19T22:48:56.803Z,100457.50
2023-01-19T22:51:26.361Z,100463.78
2023-01-19T22:53:54.710Z,100457.59
2023-01-19T22:56:25.152Z,100459.38
2023-01-19T22:58:54.352Z,100463.09
2023-01-19T23:01:24.163Z,100462.19
2023-01-19T23:03:55.286Z,100466.59
2023-01-19T23:06:24.938Z,100467.00
2023-01-19T23:08:55.173Z,100470.53
2023-01-19T23:11:25.564Z,100472.91
2023-01-19T23:13:53.964Z,100465.31
2023-01-19T23:16:23.018Z,100474.25
2023-01-19T23:18:55.633Z,100470.38
2023-01-19T23:21:26.278Z,100477.25
2023-01-19T23:23:55.306Z,100473.00
2023-01-19T23:26:24.984Z,100478.88
2023-01-19T23:28:56.492Z,100474.78
2023-01-19T23:31:27.486Z,100485.31
2023-01-19T23:33:59.306Z,100487.28
2023-01-19T23:36:30.025Z,100494.63
2023-01-19T23:39:00.110Z,100484.88
2023-01-19T23:41:30.604Z,100488.84
2023-01-19T23:43:59.187Z,100488.78
2023-01-19T23:46:27.749Z,100486.47
2023-01-19T23:48:58.432Z,100496.91
2023-01-19T23:51:29.181Z,100495.75
2023-01-19T23:53:58.476Z,100497.25
2023-01-19T23:56:28.892Z,100493.00
2023-01-19T23:58:58.980Z,100492.56
